Time;durP1;ratioP1;P1;durP2;ratioP2;P2;SDS_P1;SDS_P2;PMS_P1;PMS_P2;Temp;Humidity;BMP_temperature;BMP_pressure;BME280_temperature;BME280_humidity;BME280_pressure;Samples;Min_cycle;Max_cycle;Signal;HPM_P1;HPM_P2
2023/10/27 00:01:31;;;;;;;;;;;;;;;9.29;100.00;99189.47;5053793;28;1072;-75
2023/10/27 00:03:56;;;;;;;;;;;;;;;9.30;100.00;99178.16;5048423;28;1458;-75
2023/10/27 00:06:21;;;;;;;;;;;;;;;9.30;100.00;99173.00;5052381;28;1371;-76
2023/10/27 00:08:46;;;;;;;;;;;;;;;9.31;100.00;99179.78;5046180;28;1237;-74
2023/10/27 00:11:12;;;;;;;;;;;;;;;9.32;100.00;99171.03;5044133;28;1964;-77
2023/10/27 00:13:37;;;;;;;;;;;;;;;9.32;100.00;99171.03;5044383;28;1152;-76
2023/10/27 00:16:09;;;;;;;;;;;;;;;9.28;100.00;99167.13;5049406;28;1379;-76
2023/10/27 00:18:35;;;;;;;;;;;;;;;9.31;100.00;99179.78;5045429;28;1039;-77
2023/10/27 00:21:00;;;;;;;;;;;;;;;9.32;100.00;99171.03;5045436;28;1021;-77
2023/10/27 00:23:25;;;;;;;;;;;;;;;9.33;100.00;99162.31;5046589;28;1013;-75
2023/10/27 00:25:51;;;;;;;;;;;;;;;9.32;100.00;99165.88;5048537;28;1085;-76
2023/10/27 00:28:16;;;;;;;;;;;;;;;9.33;100.00;99170.06;5048226;28;1066;-77
2023/10/27 00:30:42;;;;;;;;;;;;;;;9.34;100.00;99163.91;5046506;28;1378;-76
2023/10/27 00:33:07;;;;;;;;;;;;;;;9.34;100.00;99163.91;5050381;28;1953;-76
2023/10/27 00:35:32;;;;;;;;;;;;;;;9.36;100.00;99156.03;5045526;28;1359;-78
2023/10/27 00:37:59;;;;;;;;;;;;;;;9.35;100.00;99160.38;5050243;28;1323;-77
2023/10/27 00:40:24;;;;;;;;;;;;;;;9.33;100.00;99151.97;5045557;28;1384;-74
2023/10/27 00:42:50;;;;;;;;;;;;;;;9.34;100.00;99158.75;5044730;28;1117;-75
2023/10/27 00:45:15;;;;;;;;;;;;;;;9.35;100.00;99154.38;5046458;28;1276;-74
2023/10/27 00:47:40;;;;;;;;;;;;;;;9.36;100.00;99153.44;5048503;28;1379;-75
2023/10/27 00:50:05;;;;;;;;;;;;;;;9.36;100.00;99149.06;5048253;28;1329;-75
2023/10/27 00:52:31;;;;;;;;;;;;;;;9.37;100.00;99150.69;5043529;28;1960;-75
2023/10/27 00:54:56;;;;;;;;;;;;;;;9.33;100.00;99149.38;5038542;28;1431;-74
2023/10/27 00:57:22;;;;;;;;;;;;;;;9.34;100.00;99148.41;5050056;28;1318;-75
2023/10/27 00:59:50;;;;;;;;;;;;;;;9.32;100.00;99143.38;5055335;28;1145;-75
2023/10/27 01:02:17;;;;;;;;;;;;;;;9.34;100.00;99143.22;5051951;28;1279;-78
2023/10/27 01:04:42;;;;;;;;;;;;;;;9.32;100.00;99132.22;5047821;28;1430;-75
2023/10/27 01:07:08;;;;;;;;;;;;;;;9.32;100.00;99134.81;5046072;28;1212;-75
2023/10/27 01:09:33;;;;;;;;;;;;;;;9.31;100.00;99134.00;5043739;28;1209;-75
2023/10/27 01:11:58;;;;;;;;;;;;;;;9.31;100.00;99138.38;5046769;28;1890;-76
2023/10/27 01:14:23;;;;;;;;;;;;;;;9.32;100.00;99129.66;5037224;28;1182;-75
2023/10/27 01:16:49;;;;;;;;;;;;;;;9.32;100.00;99124.47;5042494;28;1166;-75
2023/10/27 01:19:15;;;;;;;;;;;;;;;9.31;100.00;99128.03;5045589;28;1285;-74
2023/10/27 01:21:40;;;;;;;;;;;;;;;9.30;100.00;99126.41;5049774;28;1430;-75
2023/10/27 01:24:07;;;;;;;;;;;;;;;9.30;100.00;99121.25;5041252;28;1161;-75
2023/10/27 01:26:32;;;;;;;;;;;;;;;9.29;100.00;99120.44;5046371;28;1022;-75
2023/10/27 01:28:57;;;;;;;;;;;;;;;9.29;100.00;99122.22;5039740;28;1242;-75
2023/10/27 01:31:23;;;;;;;;;;;;;;;9.31;100.00;99117.69;5049373;28;1973;-74
2023/10/27 01:33:48;;;;;;;;;;;;;;;9.31;100.00;99112.50;5048116;28;1406;-74
2023/10/27 01:36:13;;;;;;;;;;;;;;;9.32;100.00;99114.13;5045728;28;1291;-74
2023/10/27 01:38:38;;;;;;;;;;;;;;;9.33;100.00;99120.91;5045779;28;1161;-76
2023/10/27 01:41:03;;;;;;;;;;;;;;;9.34;100.00;99116.53;5042158;28;1848;-74
2023/10/27 01:43:29;;;;;;;;;;;;;;;9.36;100.00;99115.44;5040068;28;2358;-74
2023/10/27 01:45:54;;;;;;;;;;;;;;;9.37;100.00;99117.03;5049218;28;1261;-74
2023/10/27 01:48:19;;;;;;;;;;;;;;;9.36;100.00;99110.25;5050125;28;1285;-76
2023/10/27 01:50:44;;;;;;;;;;;;;;;9.38;100.00;99113.47;5047437;28;1553;-75
2023/10/27 01:53:09;;;;;;;;;;;;;;;9.37;100.00;99111.88;5043513;28;1965;-74
2023/10/27 01:55:34;;;;;;;;;;;;;;;9.38;100.00;99113.47;5044549;28;1421;-75
2023/10/27 01:58:00;;;;;;;;;;;;;;;9.36;100.00;99118.03;5042693;28;1632;-74
2023/10/27 02:00:25;;;;;;;;;;;;;;;9.36;100.00;99105.09;5041114;28;1288;-76
2023/10/27 02:02:50;;;;;;;;;;;;;;;9.37;100.00;99113.66;5042347;28;1220;-75
2023/10/27 02:05:15;;;;;;;;;;;;;;;9.37;100.00;99111.88;5042523;28;1288;-75
2023/10/27 02:07:41;;;;;;;;;;;;;;;9.36;100.00;99104.28;5041142;28;1285;-76
2023/10/27 02:10:06;;;;;;;;;;;;;;;9.36;100.00;99105.09;5046783;28;1181;-75
2023/10/27 02:12:31;;;;;;;;;;;;;;;9.34;100.00;99101.81;5041864;28;1894;-75
2023/10/27 02:14:56;;;;;;;;;;;;;;;9.35;100.00;99113.81;5046193;28;1193;-74
2023/10/27 02:17:21;;;;;;;;;;;;;;;9.36;100.00;99107.66;5046970;28;1486;-74
2023/10/27 02:19:50;;;;;;;;;;;;;;;9.35;100.00;99100.03;5046905;28;1406;-75
2023/10/27 02:22:15;;;;;;;;;;;;;;;9.34;100.00;99094.06;5050046;28;1267;-74
2023/10/27 02:24:41;;;;;;;;;;;;;;;9.34;100.00;99096.66;5046115;28;1304;-74
2023/10/27 02:27:06;;;;;;;;;;;;;;;9.36;100.00;99105.09;5048210;28;1235;-74
2023/10/27 02:29:31;;;;;;;;;;;;;;;9.36;100.00;99099.91;5041850;28;1283;-73
2023/10/27 02:31:57;;;;;;;;;;;;;;;9.37;100.00;99101.53;5046141;28;2079;-73
2023/10/27 02:34:24;;;;;;;;;;;;;;;9.37;100.00;99098.94;5050163;28;1366;-74
2023/10/27 02:36:49;;;;;;;;;;;;;;;9.37;100.00;99101.53;5040725;28;1193;-75
2023/10/27 02:39:14;;;;;;;;;;;;;;;9.37;100.00;99086.00;5047295;28;1320;-74
2023/10/27 02:41:39;;;;;;;;;;;;;;;9.39;100.00;99093.59;5049169;28;1252;-75
2023/10/27 02:44:05;;;;;;;;;;;;;;;9.39;100.00;99089.22;5045937;28;1170;-75
2023/10/27 02:46:32;;;;;;;;;;;;;;;9.39;100.00;99089.22;5041880;28;1383;-74
2023/10/27 02:48:57;;;;;;;;;;;;;;;9.40;100.00;99084.84;5043233;28;1110;-75
2023/10/27 02:51:22;;;;;;;;;;;;;;;9.39;100.00;99084.03;5041107;28;1938;-75
2023/10/27 02:53:47;;;;;;;;;;;;;;;9.39;100.00;99078.88;5043445;28;1320;-75
2023/10/27 02:56:13;;;;;;;;;;;;;;;9.41;100.00;99082.13;5042785;28;1243;-75
2023/10/27 02:58:38;;;;;;;;;;;;;;;9.44;100.00;99079.22;5042257;28;1677;-75
2023/10/27 03:01:07;;;;;;;;;;;;;;;9.42;100.00;99073.38;5041484;28;1415;-75
2023/10/27 03:03:32;;;;;;;;;;;;;;;9.41;100.00;99076.97;5039996;28;1205;-76
2023/10/27 03:05:57;;;;;;;;;;;;;;;9.42;100.00;99073.38;5036172;28;1258;-76
2023/10/27 03:08:23;;;;;;;;;;;;;;;9.43;100.00;99075.00;5035129;28;1191;-75
2023/10/27 03:10:48;;;;;;;;;;;;;;;9.43;100.00;99075.00;5037219;28;1263;-74
2023/10/27 03:13:13;;;;;;;;;;;;;;;9.44;100.00;99071.44;5046077;28;1890;-74
2023/10/27 03:15:38;;;;;;;;;;;;;;;9.45;100.00;99077.41;5048043;28;1065;-74
2023/10/27 03:18:04;;;;;;;;;;;;;;;9.48;100.00;99071.94;5053513;28;1139;-73
2023/10/27 03:20:29;;;;;;;;;;;;;;;9.48;100.00;99067.56;5045913;28;1060;-73
2023/10/27 03:22:54;;;;;;;;;;;;;;;9.49;100.00;99069.19;5045807;28;1508;-76
2023/10/27 03:25:19;;;;;;;;;;;;;;;9.50;100.00;99070.78;5046322;28;1050;-73
2023/10/27 03:27:44;;;;;;;;;;;;;;;9.50;100.00;99070.78;5050295;28;1204;-73
2023/10/27 03:30:10;;;;;;;;;;;;;;;9.50;100.00;99070.78;5052414;28;1205;-77
2023/10/27 03:32:35;;;;;;;;;;;;;;;9.51;100.00;99067.22;5045248;28;1946;-74
2023/10/27 03:35:00;;;;;;;;;;;;;;;9.49;100.00;99064.00;5049742;28;1383;-74
2023/10/27 03:37:26;;;;;;;;;;;;;;;9.50;100.00;99065.63;5048561;28;1269;-75
2023/10/27 03:39:51;;;;;;;;;;;;;;;9.51;100.00;99069.81;5049408;28;1244;-74
2023/10/27 03:42:16;;;;;;;;;;;;;;;9.50;100.00;99070.78;5045937;28;1391;-75
2023/10/27 03:44:42;;;;;;;;;;;;;;;9.51;100.00;99062.06;5051032;28;1263;-75
2023/10/27 03:47:07;;;;;;;;;;;;;;;9.52;100.00;99061.13;5043942;28;1269;-74
2023/10/27 03:49:32;;;;;;;;;;;;;;;9.52;100.00;99061.13;5047391;28;1142;-74
2023/10/27 03:51:59;;;;;;;;;;;;;;;9.53;100.00;99065.31;5050971;28;1918;-74
2023/10/27 03:54:24;;;;;;;;;;;;;;;9.55;100.00;99067.72;5043589;28;1309;-77
2023/10/27 03:56:49;;;;;;;;;;;;;;;9.55;100.00;99063.38;5045848;28;1304;-74
2023/10/27 03:59:16;;;;;;;;;;;;;;;9.57;100.00;99061.41;5049433;28;1199;-74
2023/10/27 04:01:41;;;;;;;;;;;;;;;9.58;100.00;99063.06;5049487;28;1152;-74
2023/10/27 04:04:07;;;;;;;;;;;;;;;9.58;100.00;99055.28;5051223;28;1224;-77
2023/10/27 04:06:32;;;;;;;;;;;;;;;9.58;100.00;99057.88;5050443;28;1442;-76
2023/10/27 04:08:58;;;;;;;;;;;;;;;9.57;100.00;99051.06;5053452;28;1228;-73
2023/10/27 04:11:23;;;;;;;;;;;;;;;9.57;100.00;99056.22;5051755;28;2645;-79
2023/10/27 04:13:48;;;;;;;;;;;;;;;9.57;100.00;99050.25;5044427;28;1197;-75
2023/10/27 04:16:14;;;;;;;;;;;;;;;9.58;100.00;99052.69;5033362;28;2178;-73
2023/10/27 04:18:39;;;;;;;;;;;;;;;9.58;100.00;99052.69;5035181;28;1216;-73
2023/10/27 04:21:04;;;;;;;;;;;;;;;9.57;100.00;99051.06;5034851;28;1315;-74
2023/10/27 04:23:30;;;;;;;;;;;;;;;9.57;100.00;99052.84;5041347;28;1224;-73
2023/10/27 04:25:55;;;;;;;;;;;;;;;9.57;100.00;99051.06;5044685;28;1192;-73
2023/10/27 04:28:20;;;;;;;;;;;;;;;9.57;100.00;99051.06;5038354;28;1336;-74
2023/10/27 04:30:46;;;;;;;;;;;;;;;9.60;100.00;99059.50;5045578;28;1163;-74
2023/10/27 04:33:11;;;;;;;;;;;;;;;9.56;100.00;99048.63;5039551;28;1914;-73
2023/10/27 04:35:36;;;;;;;;;;;;;;;9.59;100.00;99058.69;5042080;28;1213;-73
2023/10/27 04:38:03;;;;;;;;;;;;;;;9.61;100.00;99051.56;5043964;28;1452;-73
2023/10/27 04:40:30;;;;;;;;;;;;;;;9.61;100.00;99050.75;5052629;28;1335;-73
2023/10/27 04:42:58;;;;;;;;;;;;;;;9.63;100.00;99059.16;5040140;28;1184;-73
2023/10/27 04:45:23;;;;;;;;;;;;;;;9.63;100.00;99059.16;5046724;28;1154;-73
2023/10/27 04:47:48;;;;;;;;;;;;;;;9.61;100.00;99056.72;5042191;28;1410;-73
2023/10/27 04:50:13;;;;;;;;;;;;;;;9.63;100.00;99064.31;5045666;28;994;-74
2023/10/27 04:52:39;;;;;;;;;;;;;;;9.61;100.00;99056.72;5047265;28;1977;-74
2023/10/27 04:55:05;;;;;;;;;;;;;;;9.63;100.00;99059.16;5046332;28;1392;-73
2023/10/27 04:57:31;;;;;;;;;;;;;;;9.63;100.00;99056.56;5041556;28;1350;-73
2023/10/27 04:59:57;;;;;;;;;;;;;;;9.62;100.00;99058.34;5044609;28;1518;-74
2023/10/27 05:02:22;;;;;;;;;;;;;;;9.63;100.00;99064.31;5046543;28;1226;-73
2023/10/27 05:04:47;;;;;;;;;;;;;;;9.61;100.00;99066.28;5048953;28;1152;-73
2023/10/27 05:07:13;;;;;;;;;;;;;;;9.62;100.00;99057.53;5047822;28;1136;-73
2023/10/27 05:09:38;;;;;;;;;;;;;;;9.63;100.00;99059.16;5044559;28;1021;-73
2023/10/27 05:12:03;;;;;;;;;;;;;;;9.63;100.00;99057.38;5044210;28;1914;-77
2023/10/27 05:14:28;;;;;;;;;;;;;;;9.65;100.00;99063.22;5048334;28;1129;-74
2023/10/27 05:16:54;;;;;;;;;;;;;;;9.64;100.00;99065.97;5046698;28;1169;-75
2023/10/27 05:19:19;;;;;;;;;;;;;;;9.62;100.00;99053.16;5042760;28;1086;-74
2023/10/27 05:21:44;;;;;;;;;;;;;;;9.63;100.00;99059.16;5037654;28;1159;-75
2023/10/27 05:24:11;;;;;;;;;;;;;;;9.63;100.00;99059.16;5045053;28;1035;-76
2023/10/27 05:26:36;;;;;;;;;;;;;;;9.62;100.00;99057.53;5041309;28;1210;-77
2023/10/27 05:29:01;;;;;;;;;;;;;;;9.61;100.00;99056.72;5045653;28;1225;-74
2023/10/27 05:31:26;;;;;;;;;;;;;;;9.64;100.00;99055.63;5040891;28;1906;-76
2023/10/27 05:33:52;;;;;;;;;;;;;;;9.64;100.00;99060.78;5039723;28;1276;-78
2023/10/27 05:36:17;;;;;;;;;;;;;;;9.63;100.00;99057.38;5047212;28;1188;-78
2023/10/27 05:38:42;;;;;;;;;;;;;;;9.63;100.00;99054.78;5043039;28;1169;-75
2023/10/27 05:41:08;;;;;;;;;;;;;;;9.62;100.00;99052.34;5043417;28;1307;-75
2023/10/27 05:43:33;;;;;;;;;;;;;;;9.61;100.00;99053.34;5043850;28;1434;-75
2023/10/27 05:45:58;;;;;;;;;;;;;;;9.62;100.00;99052.34;5045423;28;1347;-75
2023/10/27 05:48:23;;;;;;;;;;;;;;;9.62;100.00;99049.78;5038522;28;1328;-76
2023/10/27 05:50:48;;;;;;;;;;;;;;;9.63;100.00;99051.38;5045009;28;1302;-75
2023/10/27 05:53:15;;;;;;;;;;;;;;;9.61;100.00;99045.56;5049271;28;1940;-74
2023/10/27 05:55:40;;;;;;;;;;;;;;;9.61;100.00;99045.56;5047198;28;1419;-74
2023/10/27 05:58:05;;;;;;;;;;;;;;;9.60;100.00;99041.38;5043130;28;1167;-74
2023/10/27 06:00:31;;;;;;;;;;;;;;;9.60;100.00;99038.78;5046764;28;1304;-76
2023/10/27 06:02:56;;;;;;;;;;;;;;;9.61;100.00;99040.41;5044457;28;1446;-74
2023/10/27 06:05:23;;;;;;;;;;;;;;;9.61;100.00;99040.41;5040824;28;1150;-77
2023/10/27 06:07:48;;;;;;;;;;;;;;;9.60;100.00;99043.97;5045917;28;1348;-75
2023/10/27 06:10:13;;;;;;;;;;;;;;;9.59;100.00;99037.97;5051435;28;1125;-74
2023/10/27 06:12:38;;;;;;;;;;;;;;;9.61;100.00;99045.56;5039477;28;1941;-76
2023/10/27 06:15:04;;;;;;;;;;;;;;;9.58;100.00;99047.53;5039713;28;1296;-76
2023/10/27 06:17:29;;;;;;;;;;;;;;;9.60;100.00;99046.53;5042606;28;1465;-73
2023/10/27 06:19:55;;;;;;;;;;;;;;;9.60;100.00;99049.13;5043060;28;1264;-76
2023/10/27 06:22:20;;;;;;;;;;;;;;;9.58;100.00;99039.75;5046536;28;1316;-76
2023/10/27 06:24:45;;;;;;;;;;;;;;;9.60;100.00;99051.72;5046726;28;1375;-74
2023/10/27 06:27:10;;;;;;;;;;;;;;;9.60;100.00;99043.97;5046766;28;1314;-75
2023/10/27 06:29:36;;;;;;;;;;;;;;;9.60;100.00;99043.97;5045176;28;1438;-75
2023/10/27 06:32:01;;;;;;;;;;;;;;;9.61;100.00;99045.56;5043207;28;2029;-78
2023/10/27 06:34:26;;;;;;;;;;;;;;;9.60;100.00;99049.13;5038955;28;1274;-75
2023/10/27 06:36:52;;;;;;;;;;;;;;;9.58;100.00;99044.94;5049127;28;1173;-74
2023/10/27 06:39:17;;;;;;;;;;;;;;;9.57;100.00;99038.13;5044946;28;1607;-73
2023/10/27 06:41:42;;;;;;;;;;;;;;;9.58;100.00;99041.53;5040040;28;1816;-76
2023/10/27 06:44:08;;;;;;;;;;;;;;;9.62;100.00;99042.00;5044447;28;1867;-74
2023/10/27 06:46:33;;;;;;;;;;;;;;;9.57;100.00;99045.88;5046405;28;1783;-73
2023/10/27 06:48:58;;;;;;;;;;;;;;;9.57;100.00;99040.69;5042130;28;2134;-80
2023/10/27 06:51:26;;;;;;;;;;;;;;;9.58;100.00;99041.53;5031747;28;1953;-73
2023/10/27 06:53:51;;;;;;;;;;;;;;;9.57;100.00;99045.88;5046374;28;1291;-74
2023/10/27 06:56:16;;;;;;;;;;;;;;;9.55;100.00;99037.47;5045339;28;1429;-75
2023/10/27 06:58:42;;;;;;;;;;;;;;;9.57;100.00;99050.25;5041739;28;1255;-74
2023/10/27 07:01:07;;;;;;;;;;;;;;;9.56;100.00;99043.47;5046969;28;1105;-73
2023/10/27 07:03:34;;;;;;;;;;;;;;;9.55;100.00;99053.00;5048824;28;1205;-74
2023/10/27 07:05:59;;;;;;;;;;;;;;;9.54;100.00;99053.19;5043351;28;1226;-74
2023/10/27 07:08:24;;;;;;;;;;;;;;;9.53;100.00;99048.97;5049092;28;1126;-74
2023/10/27 07:10:54;;;;;;;;;;;;;;;9.55;100.00;99047.03;5052358;28;1265;-74
2023/10/27 07:13:19;;;;;;;;;;;;;;;9.55;100.00;99053.00;5046718;28;1925;-74
2023/10/27 07:15:44;;;;;;;;;;;;;;;9.55;100.00;99050.41;5052055;28;1203;-73
2023/10/27 07:18:09;;;;;;;;;;;;;;;9.55;100.00;99057.38;5052117;28;1303;-73
2023/10/27 07:20:38;;;;;;;;;;;;;;;9.54;100.00;99056.56;5050947;28;1135;-74
2023/10/27 07:23:03;;;;;;;;;;;;;;;9.54;100.00;99061.75;5050312;28;1116;-76
2023/10/27 07:25:29;;;;;;;;;;;;;;;9.55;100.00;99063.38;5047115;28;1335;-73
2023/10/27 07:27:55;;;;;;;;;;;;;;;9.55;100.00;99063.38;5049991;28;1226;-74
2023/10/27 07:30:20;;;;;;;;;;;;;;;9.57;100.00;99082.13;5050651;28;1109;-74
2023/10/27 07:32:45;;;;;;;;;;;;;;;9.57;100.00;99076.94;5046661;28;1930;-73
2023/10/27 07:35:11;;;;;;;;;;;;;;;9.57;100.00;99076.94;5053163;28;1106;-74
2023/10/27 07:37:36;;;;;;;;;;;;;;;9.56;100.00;99075.31;5046197;28;1241;-75
2023/10/27 07:40:01;;;;;;;;;;;;;;;9.57;100.00;99082.13;5050010;28;1210;-74
2023/10/27 07:42:29;;;;;;;;;;;;;;;9.57;100.00;99076.94;5047891;28;1196;-74
2023/10/27 07:44:54;;;;;;;;;;;;;;;9.58;100.00;99073.41;5045886;28;1306;-74
2023/10/27 07:47:19;;;;;;;;;;;;;;;9.61;100.00;99076.63;5046595;28;1156;-74
2023/10/27 07:49:44;;;;;;;;;;;;;;;9.62;100.00;99083.41;5043896;28;1332;-73
2023/10/27 07:52:09;;;;;;;;;;;;;;;9.63;100.00;99074.69;5047014;28;1985;-78
2023/10/27 07:54:34;;;;;;;;;;;;;;;9.65;100.00;99083.91;5042821;28;1113;-75
2023/10/27 07:57:00;;;;;;;;;;;;;;;9.66;100.00;99079.53;5040908;28;1708;-73
2023/10/27 07:59:26;;;;;;;;;;;;;;;9.67;100.00;99081.97;5052832;28;1003;-73
2023/10/27 08:01:51;;;;;;;;;;;;;;;9.69;100.00;99079.22;5051104;28;1550;-74
2023/10/27 08:04:18;;;;;;;;;;;;;;;9.69;100.00;99080.03;5042526;28;1416;-74
2023/10/27 08:06:44;;;;;;;;;;;;;;;9.73;100.00;99085.69;5051716;28;1325;-73
2023/10/27 08:09:09;;;;;;;;;;;;;;;9.73;100.00;99096.03;5055562;28;1712;-73
2023/10/27 08:11:34;;;;;;;;;;;;;;;9.74;100.00;99092.47;5045303;28;1910;-74
2023/10/27 08:13:59;;;;;;;;;;;;;;;9.75;100.00;99094.94;5046605;28;1391;-78
2023/10/27 08:16:25;;;;;;;;;;;;;;;9.78;100.00;99098.97;5048688;28;1733;-73
2023/10/27 08:18:51;;;;;;;;;;;;;;;9.77;100.00;99087.78;5046526;28;1328;-73
2023/10/27 08:21:16;;;;;;;;;;;;;;;9.81;100.00;99088.28;5043070;28;1375;-74
2023/10/27 08:23:41;;;;;;;;;;;;;;;9.82;100.00;99095.88;5046237;28;1273;-74
2023/10/27 08:26:07;;;;;;;;;;;;;;;9.85;100.00;99094.75;5051576;28;2047;-74
2023/10/27 08:28:33;;;;;;;;;;;;;;;9.87;100.00;99098.00;5049805;28;1335;-74
2023/10/27 08:30:59;;;;;;;;;;;;;;;9.89;100.00;99096.03;5047723;28;1344;-74
2023/10/27 08:33:25;;;;;;;;;;;;;;;9.91;100.00;99099.25;5044945;28;2352;-74
2023/10/27 08:35:50;;;;;;;;;;;;;;;9.91;100.00;99104.44;5048394;28;1155;-74
2023/10/27 08:38:15;;;;;;;;;;;;;;;9.92;100.00;99098.31;5044739;28;1192;-74
2023/10/27 08:40:42;;;;;;;;;;;;;;;9.93;100.00;99101.72;5040195;28;1462;-73
2023/10/27 08:43:07;;;;;;;;;;;;;;;9.93;100.00;99106.91;5053545;28;1158;-74
2023/10/27 08:45:34;;;;;;;;;;;;;;;9.96;100.00;99107.34;5040141;28;1784;-73
2023/10/27 08:48:00;;;;;;;;;;;;;;;9.97;100.00;99108.97;5043377;28;1300;-73
2023/10/27 08:50:25;;;;;;;;;;;;;;;9.97;100.00;99108.97;5057247;28;1388;-73
2023/10/27 08:52:51;;;;;;;;;;;;;;;9.98;100.00;99105.44;5044699;28;1894;-73
2023/10/27 08:55:16;;;;;;;;;;;;;;;10.00;100.00;99102.66;5042262;28;1325;-74
2023/10/27 08:57:41;;;;;;;;;;;;;;;10.00;100.00;99103.47;5045837;28;1254;-73
2023/10/27 09:00:07;;;;;;;;;;;;;;;10.01;100.00;99112.84;5054611;28;1347;-73
2023/10/27 09:02:33;;;;;;;;;;;;;;;10.00;100.00;99108.66;5043894;28;1353;-73
2023/10/27 09:05:06;;;;;;;;;;;;;;;9.97;100.00;99119.31;5047904;28;1398;-73
2023/10/27 09:07:32;;;;;;;;;;;;;;;9.95;100.00;99121.28;5044290;28;1325;-73
2023/10/27 09:09:58;;;;;;;;;;;;;;;9.94;100.00;99124.03;5043979;28;1232;-73
2023/10/27 09:12:25;;;;;;;;;;;;;;;9.94;100.00;99119.66;5044241;28;1906;-74
2023/10/27 09:14:58;;;;;;;;;;;;;;;9.96;100.00;99117.72;5047942;28;1318;-75
2023/10/27 09:17:23;;;;;;;;;;;;;;;9.97;100.00;99124.50;5044746;28;1273;-74
2023/10/27 09:20:01;;;;;;;;;;;;;;;10.00;100.00;99129.38;5045498;28;1208;-73
2023/10/27 09:22:26;;;;;;;;;;;;;;;10.02;100.00;99126.63;5046973;28;1361;-73
2023/10/27 09:24:51;;;;;;;;;;;;;;;10.03;100.00;99129.03;5048882;28;1263;-73
2023/10/27 09:27:24;;;;;;;;;;;;;;;10.05;100.00;99121.94;5049634;28;1327;-73
2023/10/27 09:29:51;;;;;;;;;;;;;;;10.06;100.00;99123.53;5038362;28;1200;-76
2023/10/27 09:32:24;;;;;;;;;;;;;;;10.05;100.00;99132.28;5051196;28;1921;-74
2023/10/27 09:35:06;;;;;;;;;;;;;;;10.06;100.00;99127.91;5050765;28;1387;-74
2023/10/27 09:37:32;;;;;;;;;;;;;;;10.07;100.00;99135.50;5040587;28;1108;-74
2023/10/27 09:39:57;;;;;;;;;;;;;;;10.07;100.00;99132.94;5045756;28;1346;-75
2023/10/27 09:42:22;;;;;;;;;;;;;;;10.06;100.00;99144.25;5054885;28;1257;-74
2023/10/27 09:45:14;;;;;;;;;;;;;;;10.04;100.00;99135.84;5046119;28;1565;-74
2023/10/27 09:47:47;;;;;;;;;;;;;;;10.04;100.00;99146.22;5044277;28;1420;-74
2023/10/27 09:50:17;;;;;;;;;;;;;;;10.05;100.00;99147.03;5047298;28;1316;-74
2023/10/27 09:52:43;;;;;;;;;;;;;;;10.06;100.00;99139.09;5048817;28;1966;-74
2023/10/27 09:55:11;;;;;;;;;;;;;;;10.06;100.00;99149.44;5036676;28;1335;-75
2023/10/27 09:57:37;;;;;;;;;;;;;;;10.06;100.00;99146.84;5044445;28;1285;-74
2023/10/27 10:00:07;;;;;;;;;;;;;;;10.07;100.00;99145.06;5042015;28;1563;-74
2023/10/27 10:02:33;;;;;;;;;;;;;;;10.07;100.00;99156.25;5041355;28;1377;-74
2023/10/27 10:05:00;;;;;;;;;;;;;;;10.07;100.00;99151.06;5042334;28;1351;-74
2023/10/27 10:07:32;;;;;;;;;;;;;;;10.06;100.00;99154.63;5052843;28;1400;-74
2023/10/27 10:09:59;;;;;;;;;;;;;;;10.08;100.00;99151.88;5042250;28;1589;-74
2023/10/27 10:12:24;;;;;;;;;;;;;;;10.10;100.00;99147.34;5046445;28;1964;-76
2023/10/27 10:14:50;;;;;;;;;;;;;;;10.10;100.00;99145.56;5048311;28;1428;-74
2023/10/27 10:17:34;;;;;;;;;;;;;;;10.14;100.00;99150.41;5050191;28;1339;-75
2023/10/27 10:19:59;;;;;;;;;;;;;;;10.17;100.00;99139.72;5048780;28;1541;-74
2023/10/27 10:22:37;;;;;;;;;;;;;;;10.18;100.00;99141.34;5043828;28;1233;-74
2023/10/27 10:25:14;;;;;;;;;;;;;;;10.20;100.00;99139.38;5039563;28;1145;-74
2023/10/27 10:27:59;;;;;;;;;;;;;;;10.20;100.00;99139.38;5037787;28;1311;-74
2023/10/27 10:30:25;;;;;;;;;;;;;;;10.24;100.00;99136.34;5044321;28;1280;-74
2023/10/27 10:32:53;;;;;;;;;;;;;;;10.27;100.00;99146.38;5040890;28;1898;-76
2023/10/27 10:35:21;;;;;;;;;;;;;;;10.30;100.00;99140.88;5039361;28;1356;-74
2023/10/27 10:37:47;;;;;;;;;;;;;;;10.31;100.00;99144.25;5039670;28;1492;-74
2023/10/27 10:40:16;;;;;;;;;;;;;;;10.34;100.00;99136.16;5047724;28;1452;-74
2023/10/27 10:43:00;;;;;;;;;;;;;;;10.36;100.00;99129.03;5046668;28;1235;-76
2023/10/27 10:45:25;;;;;;;;;;;;;;;10.38;100.00;99140.06;5049422;28;1334;-75
2023/10/27 10:47:55;;;;;;;;;;;;;;;10.42;100.00;99137.94;5044812;28;1204;-74
2023/10/27 10:50:27;;;;;;;;;;;;;;;10.42;100.00;99138.72;5046177;28;1287;-74
2023/10/27 10:53:09;;;;;;;;;;;;;;;10.43;100.00;99144.72;5037973;28;1970;-75
2023/10/27 10:55:34;;;;;;;;;;;;;;;10.44;100.00;99149.75;5041244;28;1378;-74
2023/10/27 10:57:59;;;;;;;;;;;;;;;10.45;100.00;99143.59;5049075;28;1316;-74
2023/10/27 11:00:32;;;;;;;;;;;;;;;10.46;100.00;99141.81;5051395;28;1096;-77
2023/10/27 11:03:09;;;;;;;;;;;;;;;10.47;100.00;99146.81;5042356;28;1313;-75
2023/10/27 11:05:35;;;;;;;;;;;;;;;10.47;100.00;99146.81;5046397;28;1230;-74
2023/10/27 11:08:01;;;;;;;;;;;;;;;10.48;100.00;99139.84;5045773;28;1376;-75
2023/10/27 11:10:26;;;;;;;;;;;;;;;10.47;100.00;99141.66;5042084;28;1338;-76
2023/10/27 11:12:51;;;;;;;;;;;;;;;10.50;100.00;99146.50;5054215;28;1906;-74
2023/10/27 11:15:36;;;;;;;;;;;;;;;10.50;100.00;99149.09;5049067;28;1273;-74
2023/10/27 11:18:10;;;;;;;;;;;;;;;10.52;100.00;99144.56;5052844;28;1066;-74
2023/10/27 11:20:35;;;;;;;;;;;;;;;10.52;100.00;99152.31;5043960;28;1178;-74
2023/10/27 11:23:07;;;;;;;;;;;;;;;10.52;100.00;99149.72;5047257;28;1247;-79
2023/10/27 11:25:32;;;;;;;;;;;;;;;10.53;100.00;99150.53;5048629;28;1101;-74
2023/10/27 11:28:16;;;;;;;;;;;;;;;10.54;100.00;99152.97;5049676;28;1061;-74
2023/10/27 11:30:41;;;;;;;;;;;;;;;10.54;100.00;99150.38;5042514;28;1093;-74
2023/10/27 11:33:08;;;;;;;;;;;;;;;10.56;100.00;99150.22;5044568;28;1973;-73
2023/10/27 11:35:33;;;;;;;;;;;;;;;10.56;100.00;99145.84;5045749;28;1331;-74
2023/10/27 11:38:02;;;;;;;;;;;;;;;10.57;100.00;99137.09;5035659;28;1196;-74
2023/10/27 11:40:27;;;;;;;;;;;;;;;10.57;100.00;99142.28;5041741;28;1332;-75
2023/10/27 11:42:52;;;;;;;;;;;;;;;10.60;100.00;99146.31;5043039;28;989;-76
2023/10/27 11:45:18;;;;;;;;;;;;;;;10.59;100.00;99142.09;5042371;28;1340;-76
2023/10/27 11:47:43;;;;;;;;;;;;;;;10.61;100.00;99140.97;5042166;28;1131;-77
2023/10/27 11:50:09;;;;;;;;;;;;;;;10.61;100.00;99153.94;5046264;28;1374;-75
2023/10/27 11:52:34;;;;;;;;;;;;;;;10.62;100.00;99145.19;5053043;28;1973;-77
2023/10/27 11:55:00;;;;;;;;;;;;;;;10.61;100.00;99143.56;5048611;28;1452;-76
2023/10/27 11:57:25;;;;;;;;;;;;;;;10.62;100.00;99150.38;5042939;28;1422;-74
2023/10/27 11:59:50;;;;;;;;;;;;;;;10.62;100.00;99147.78;5046898;28;1516;-74
2023/10/27 12:02:15;;;;;;;;;;;;;;;10.60;100.00;99149.69;5047569;28;1226;-73
2023/10/27 12:04:40;;;;;;;;;;;;;;;10.60;100.00;99152.28;5044453;28;1121;-75
2023/10/27 12:07:06;;;;;;;;;;;;;;;10.61;100.00;99147.94;5047442;28;1314;-74
2023/10/27 12:09:31;;;;;;;;;;;;;;;10.62;100.00;99150.38;5046130;28;1189;-74
2023/10/27 12:11:56;;;;;;;;;;;;;;;10.64;100.00;99143.22;5043500;28;1894;-74
2023/10/27 12:14:23;;;;;;;;;;;;;;;10.63;100.00;99146.78;5045225;28;1534;-76
2023/10/27 12:16:48;;;;;;;;;;;;;;;10.63;100.00;99146.78;5044184;28;1095;-77
2023/10/27 12:19:13;;;;;;;;;;;;;;;10.66;100.00;99144.81;5046531;28;1505;-74
2023/10/27 12:21:38;;;;;;;;;;;;;;;10.65;100.00;99138.84;5044899;28;1336;-75
2023/10/27 12:24:04;;;;;;;;;;;;;;;10.67;100.00;99141.25;5054452;28;1416;-75
2023/10/27 12:26:29;;;;;;;;;;;;;;;10.67;100.00;99146.44;5043020;28;1262;-76
2023/10/27 12:28:54;;;;;;;;;;;;;;;10.68;100.00;99148.09;5043182;28;1233;-75
2023/10/27 12:31:20;;;;;;;;;;;;;;;10.68;100.00;99143.69;5047485;28;1380;-74
2023/10/27 12:33:45;;;;;;;;;;;;;;;10.72;100.00;99144.16;5047385;28;1985;-74
2023/10/27 12:36:11;;;;;;;;;;;;;;;10.71;100.00;99147.72;5049996;28;1212;-74
2023/10/27 12:38:36;;;;;;;;;;;;;;;10.70;100.00;99151.31;5050296;28;1239;-74
2023/10/27 12:41:02;;;;;;;;;;;;;;;10.67;100.00;99152.47;5048689;28;1173;-75
2023/10/27 12:43:28;;;;;;;;;;;;;;;10.68;100.00;99154.06;5054610;28;1117;-74
2023/10/27 12:45:53;;;;;;;;;;;;;;;10.69;100.00;99149.69;5046922;28;1090;-74
2023/10/27 12:48:20;;;;;;;;;;;;;;;10.68;100.00;99159.25;5051055;28;1385;-76
2023/10/27 12:50:45;;;;;;;;;;;;;;;10.70;100.00;99146.13;5045348;28;1207;-74